Tiempo atmosférico en la estación meteorológica de Almudébar, Huesca (390 m.)



Fecha
DESCASC
Temp. máxima en grados centígrados (hora)
DESCASC
Temp. mínima en grados centígrados (hora)
DESCASC
Temp. media en grados centígrados
DESCASC
Racha de viento máxima en m/sg (hora)
DESCASC
Velocidad máxima media en intervalos de 10 minutos(hora)
DESCASC
Precipitaciones diarias en mm
DESCASC
Precipitaciones de 00:00 a 06:00 en mm
DESCASC
Precipitaciones de 06:00 a 12:00 en mm
DESCASC
Precipitaciones de 12:00 a 18:00 en mm
DESCASC
Precipitaciones de 18:00 a 24:00 en mm
DESCASC

Gráficas

Temp. máximas Temp. mínimas Temp. medias Precipitaciones Rachas de viento máximas Velocidades máximas media en intervalos de 10 minutos

Datos horarios

Fecha y hora oficial Temperatura (ºC) Velocidad del viento (km/h) Dirección del viento Racha (km/h) Dirección de racha Precipitación (mm) Presión (hPa) Tendencia (hPa) Humedad (%)
2019-06-24 23:00:00 23.9 9 Este 25 Sudeste 0 -- -- 42
2019-06-24 22:00:00 25.9 20 Sudeste 28 Sudeste 0 -- -- 37
2019-06-24 21:00:00 28.1 10 Sudeste 33 Sudeste 0 -- -- 34
2019-06-24 20:00:00 30.2 22 Sudeste 34 Sudeste 0 -- -- 32
2019-06-24 19:00:00 30.2 17 Sudeste 36 Sudeste 0 -- -- 32
2019-06-24 18:00:00 31.5 27 Sudeste 41 Este 0 -- -- 29
2019-06-24 17:00:00 31 26 Sudeste 41 Sudeste 0 -- -- 30
2019-06-24 16:00:00 31 27 Este 43 Sudeste 0 -- -- 27
2019-06-24 15:00:00 31.2 29 Este 41 Este 0 -- -- 27
2019-06-24 14:00:00 29.5 26 Este 37 Sudeste 0 -- -- 32
2019-06-24 13:00:00 28 28 Este 42 Este 0 -- -- 33
2019-06-24 12:00:00 26.7 31 Este 46 Este 0 -- -- 37
2019-06-24 11:00:00 25.3 25 Sudeste 35 Sudeste 0 -- -- 44
2019-06-24 10:00:00 23.6 18 Sudeste 27 Sudeste 0 -- -- 46
2019-06-24 09:00:00 22.4 21 Sudeste 27 Sudeste 0 -- -- 50
2019-06-24 08:00:00 19.3 18 Sudeste 31 Este 0 -- -- 61
2019-06-24 07:00:00 16.8 22 Sudeste 28 Este 0 -- -- 68
2019-06-24 06:00:00 18.4 14 Sudeste 25 Este 0 -- -- 61
2019-06-24 05:00:00 19.4 16 Sudeste 36 Este 0 -- -- 56
2019-06-24 04:00:00 20.8 21 Este 31 Este 0 -- -- 50
2019-06-24 03:00:00 19.6 11 Este 29 Este 0 -- -- 56
2019-06-24 02:00:00 21.3 17 Este 38 Este 0 -- -- 50
2019-06-24 01:00:00 23.3 23 Este 42 Este 0 -- -- 43
2019-06-24 00:00:00 24.5 18 Este 33 Este 0 -- -- 41
2019-06-23 23:00:00 25.3 19 Este 30 Nordeste 0 -- -- 42
2019-06-23 22:00:00 27.2 20 Este 32 Este 0 -- -- 44
2019-06-23 21:00:00 29.5 21 Este 34 Este 0 -- -- 41
2019-06-23 20:00:00 32.1 28 Sudeste 39 Sudeste 0 -- -- 37
2019-06-23 19:00:00 33.9 23 Este 35 Este 0 -- -- 30
2019-06-23 18:00:00 33.2 19 Este 29 Este 0 -- -- 30
2019-06-23 17:00:00 33.8 17 Este 28 Sudeste 0 -- -- 29
2019-06-23 16:00:00 32.9 17 Este 28 Este 0 -- -- 34
2019-06-23 15:00:00 32.1 16 Sudeste 31 Este 0 -- -- 38
2019-06-23 14:00:00 31 19 Este 34 Sudeste 0 -- -- 39
2019-06-23 13:00:00 29.1 22 Sudeste 31 Sudeste 0 -- -- 46
2019-06-23 12:00:00 27.1 22 Este 32 Este 0 -- -- 53
2019-06-23 11:00:00 25.4 18 Este 32 Sudeste 0 -- -- 54
2019-06-23 10:00:00 23.6 22 Este 31 Este 0 -- -- 57
2019-06-23 09:00:00 21.7 19 Este 26 Este 0 -- -- 65
2019-06-23 08:00:00 19.2 13 Este 19 Este 0 -- -- 74
2019-06-23 07:00:00 17.3 12 Este 18 Este 0 -- -- 80
2019-06-23 06:00:00 17.4 13 Este 24 Sudeste 0 -- -- 80
2019-06-23 05:00:00 17.7 19 Este 28 Sudeste 0 -- -- 81
2019-06-23 04:00:00 18.7 18 Este 32 Este 0 -- -- 76
2019-06-23 03:00:00 19.5 21 Este 32 Este 0 -- -- 74
2019-06-23 02:00:00 20.1 18 Este 25 Este 0 -- -- 72
2019-06-23 01:00:00 20.7 15 Este 26 Nordeste 0 -- -- 64
2019-06-23 00:00:00 22.3 16 Este 25 Este 0 -- -- 59
2019-06-22 23:00:00 23.8 13 Sudeste 23 Sudeste 0 -- -- 51
2019-06-22 22:00:00 25 14 Este 20 Este 0 -- -- 44
2019-06-22 21:00:00 27.7 14 Sudeste 21 Este 0 -- -- 38
2019-06-22 20:00:00 29.5 13 Sudeste 22 Sudeste 0 -- -- 37
2019-06-22 19:00:00 30.7 12 Sudeste 21 Este 0 -- -- 33
2019-06-22 18:00:00 31 3 Nordeste 15 Sudeste 0 -- -- 29
2019-06-22 17:00:00 29.9 6 Norte 18 Sudeste 0 -- -- 30
2019-06-22 16:00:00 29.3 6 Nordeste 17 Este 0 -- -- 32
2019-06-22 15:00:00 28.5 5 Nordeste 16 Este 0 -- -- 35
2019-06-22 14:00:00 26.7 3 Oeste 12 Este 0 -- -- 33
2019-06-22 13:00:00 24.8 3 Sudeste 9 Sudoeste 0 -- -- 39
2019-06-22 12:00:00 22.5 4 Noroeste 12 Oeste 0 -- -- 48
2019-06-22 11:00:00 20 5 Sudoeste 12 Oeste 0 -- -- 57
2019-06-22 10:00:00 18 6 Oeste 15 Sudoeste 0 -- -- 64
2019-06-22 09:00:00 15.6 8 Oeste 14 Oeste 0 -- -- 73
2019-06-22 08:00:00 12.5 8 Sudoeste 12 Sudoeste 0 -- -- 86
2019-06-22 07:00:00 11.3 3 Noroeste 13 Oeste 0 -- -- 89
2019-06-22 06:00:00 11.3 7 Sudoeste 17 Oeste 0 -- -- 88
2019-06-22 05:00:00 11.7 12 Noroeste 23 Oeste 0 -- -- 86
2019-06-22 04:00:00 12.3 8 Oeste 22 Oeste 0 -- -- 83
2019-06-22 03:00:00 13.2 13 Oeste 25 Oeste 0 -- -- 79
2019-06-22 02:00:00 14.5 20 Oeste 32 Oeste 0 -- -- 74
2019-06-22 01:00:00 15.4 13 Sudoeste 32 Noroeste 0 -- -- 72
2019-06-22 00:00:00 16.4 6 Oeste 37 Noroeste 0 -- -- 69
2019-06-21 23:00:00 17.8 20 Noroeste 38 Oeste 0 -- -- 64
2019-06-21 22:00:00 19.7 20 Oeste 36 Oeste 0 -- -- 58
2019-06-21 21:00:00 22.4 23 Oeste 35 Oeste 0 -- -- 51
2019-06-21 20:00:00 24.6 17 Oeste 34 Oeste 0 -- -- 45
2019-06-21 19:00:00 25.9 15 Oeste 31 Oeste 0 -- -- 45
2019-06-21 18:00:00 26.2 16 Oeste 30 Oeste 0 -- -- 47
2019-06-21 17:00:00 25.9 13 Noroeste 28 Oeste 0 -- -- 49
2019-06-21 16:00:00 25.1 15 Oeste 35 Oeste 0 -- -- 51
2019-06-21 15:00:00 24.3 14 Oeste 31 Sudoeste 0 -- -- 53
2019-06-21 14:00:00 22.5 14 Oeste 26 Sudoeste 0 -- -- 62
2019-06-21 13:00:00 21.4 14 Oeste 27 Oeste 0 -- -- 66
2019-06-21 12:00:00 20.7 10 Oeste 23 Oeste 0 -- -- 70
2019-06-21 11:00:00 18.8 10 Oeste 21 Noroeste 0 -- -- 76
2019-06-21 10:00:00 17.9 12 Noroeste 18 Oeste 0 -- -- 81
2019-06-21 09:00:00 16.3 5 Oeste 12 Oeste 0 -- -- 89
2019-06-21 08:00:00 15.4 9 Oeste 17 Oeste 0 -- -- 92
2019-06-21 07:00:00 15.7 6 Noroeste 13 Noroeste 0 -- -- 93
2019-06-21 06:00:00 15.5 3 Noroeste 21 Oeste 0 -- -- 92
2019-06-21 05:00:00 15.2 8 Noroeste 21 Noroeste 0.2 -- -- 92
2019-06-21 04:00:00 15.8 12 Noroeste 18 Noroeste 0 -- -- 87
2019-06-21 03:00:00 16.3 10 Noroeste 14 Noroeste 0 -- -- 86
2019-06-21 02:00:00 16.4 5 Noroeste 9 Noroeste 0 -- -- 86
2019-06-21 01:00:00 16.2 7 Noroeste 15 Oeste 0 -- -- 86
2019-06-21 00:00:00 17.2 11 Oeste 23 Noroeste 0 -- -- 80
2019-06-20 23:00:00 19.6 8 Oeste 17 Noroeste 0 -- -- 68
2019-06-20 22:00:00 20.8 6 Nordeste 20 Oeste 0 -- -- 66
2019-06-20 21:00:00 22 8 Oeste 33 Sudeste 0.2 -- -- 64
2019-06-20 20:00:00 24 22 Sudeste 39 Sudeste 0 -- -- 60
2019-06-20 19:00:00 28.3 5 Nordeste 18 Sur 0 -- -- 42
2019-06-20 18:00:00 29 7 Sur 17 Sudeste 0 -- -- 42
2019-06-20 17:00:00 28.6 11 Sudeste 18 Sudeste 0 -- -- 40
2019-06-20 16:00:00 29.6 9 Sudoeste 23 Sur 0 -- -- 39
2019-06-20 15:00:00 28.9 6 Sudoeste 19 Este 0 -- -- 41
2019-06-20 14:00:00 27.8 6 Sudeste 22 Sudeste 0 -- -- 42
2019-06-20 13:00:00 26.3 7 Sur 20 Sur 0 -- -- 48
2019-06-20 12:00:00 24.8 5 Oeste 14 Sudeste 0 -- -- 54
2019-06-20 11:00:00 22.5 3 Sudoeste 17 Noroeste 0 -- -- 59
2019-06-20 10:00:00 19.8 10 Oeste 22 Oeste 0 -- -- 67
2019-06-20 09:00:00 17.7 17 Oeste 26 Oeste 0 -- -- 74
2019-06-20 08:00:00 16.3 12 Noroeste 18 Noroeste 0 -- -- 80
2019-06-20 07:00:00 15.5 8 Oeste 23 Oeste 0 -- -- 84
2019-06-20 06:00:00 15.8 13 Oeste 20 Oeste 0 -- -- 82
2019-06-20 05:00:00 16.5 8 Noroeste 18 Oeste 0 -- -- 80
2019-06-20 04:00:00 17.7 9 Oeste 22 Oeste 0 -- -- 79
2019-06-20 03:00:00 19.2 10 Noroeste 17 Noroeste 0 -- -- 72
2019-06-20 02:00:00 20.4 9 Noroeste 18 Noroeste 0 -- -- 59
2019-06-20 01:00:00 20.9 11 Noroeste 17 Noroeste 0 -- -- 56
2019-06-20 00:00:00 20.7 5 Oeste 12 Oeste 0 -- -- 57
2019-06-19 23:00:00 21.6 4 Noroeste 5 Nordeste 0 -- -- 53
2019-06-19 22:00:00 23.3 5 Sudeste 10 Norte 0 -- -- 48
2019-06-19 21:00:00 26.6 8 Norte 11 Norte 0 -- -- 38
2019-06-19 20:00:00 27.9 7 Norte 21 Noroeste 0 -- -- 35
2019-06-19 19:00:00 29 15 Noroeste 25 Noroeste 0 -- -- 34
2019-06-19 18:00:00 29.9 10 Noroeste 26 Noroeste 0 -- -- 33
2019-06-19 17:00:00 29.8 6 Oeste 17 Noroeste 0 -- -- 33
2019-06-19 16:00:00 29 12 Noroeste 22 Noroeste 0 -- -- 34
2019-06-19 15:00:00 -- -- -- -- -- -- -- -- --
2019-06-19 14:00:00 -- -- -- -- -- -- -- -- --
2019-06-19 13:00:00 -- -- -- -- -- -- -- -- --
2019-06-19 12:00:00 -- -- -- -- -- -- -- -- --
2019-06-19 11:00:00 -- -- -- -- -- -- -- -- --
2019-06-19 10:00:00 -- -- -- -- -- -- -- -- --
2019-06-19 09:00:00 -- -- -- -- -- -- -- -- --
2019-06-19 08:00:00 -- -- -- -- -- -- -- -- --
2019-06-19 07:00:00 -- -- -- -- -- -- -- -- --
2019-06-19 06:00:00 14.4 9 Nordeste 13 Nordeste 0 -- -- 63
2019-06-19 05:00:00 15.7 9 Este 15 Este 0 -- -- 55
2019-06-19 04:00:00 16 8 Este 15 Este 0 -- -- 54
2019-06-19 03:00:00 -- -- -- -- -- -- -- -- --
2019-06-19 02:00:00 17.3 9 Este 21 Este 0 -- -- 50
2019-06-19 01:00:00 19 13 Este 26 Nordeste 0 -- -- 45
2019-06-19 00:00:00 20.9 19 Este 36 Este 0 -- -- 40
2019-06-18 23:00:00 22.6 23 Este 37 Este 0 -- -- 37
2019-06-18 22:00:00 24.1 20 Este 42 Este 0 -- -- 37
2019-06-18 21:00:00 26.5 27 Este 43 Este 0 -- -- 40
2019-06-18 20:00:00 29.6 26 Este 40 Sudeste 0 -- -- 37
2019-06-18 19:00:00 30.9 27 Sudeste 41 Sudeste 0 -- -- 30
2019-06-18 18:00:00 33.1 22 Sudeste 34 Sudeste 0 -- -- 27
2019-06-18 17:00:00 32.6 14 Sudeste 32 Este 0 -- -- 26
2019-06-18 16:00:00 30.8 17 Sudeste 28 Sudeste 0 -- -- 29
2019-06-18 15:00:00 31.1 18 Sudeste 31 Sudeste 0 -- -- 29
2019-06-18 14:00:00 29.8 15 Este 29 Sudeste 0 -- -- 31
2019-06-18 13:00:00 28.2 18 Este 30 Sudeste 0 -- -- 35
2019-06-18 12:00:00 25.3 19 Sudeste 32 Sudeste -- -- -- 41
2019-06-18 11:00:00 24 25 Sudeste 36 Sudeste 0 -- -- 43
2019-06-18 10:00:00 21.9 20 Sudeste 36 Este 0 -- -- 50
2019-06-18 09:00:00 20.1 17 Este 25 Este 0 -- -- 52
2019-06-18 08:00:00 18 15 Este 26 Este 0 -- -- 55
2019-06-18 07:00:00 16.6 8 Nordeste 26 Este 0 -- -- 63
2019-06-18 06:00:00 16.6 14 Este 21 Este 0 -- -- 63
2019-06-18 05:00:00 17.7 15 Este 26 Este 0 -- -- 61
2019-06-18 04:00:00 18.8 18 Este 28 Este 0 -- -- 59
2019-06-18 03:00:00 20 19 Este 31 Este 0 -- -- 56
2019-06-18 02:00:00 20.3 19 Este 32 Este 0 -- -- 58
2019-06-18 01:00:00 21.4 18 Este 31 Nordeste 0 -- -- 57
2019-06-18 00:00:00 22.2 18 Este 30 Este 0 -- -- 57
2019-06-17 23:00:00 24 19 Este 30 Este 0 -- -- 50
2019-06-17 22:00:00 25.5 17 Este 25 Sudeste 0 -- -- 43
2019-06-17 21:00:00 28.3 11 Este 21 Este 0 -- -- 31
2019-06-17 20:00:00 31.4 13 Este 23 Sudeste 0 -- -- 25
2019-06-17 19:00:00 32.2 12 Sudeste 21 Sudeste 0 -- -- 26
2019-06-17 18:00:00 32.4 10 Sudeste 22 Este 0 -- -- 26
2019-06-17 17:00:00 32.3 6 Sudeste 18 Este 0 -- -- 25
2019-06-17 16:00:00 32 9 Este 28 Sudeste 0 -- -- 28
2019-06-17 15:00:00 31.1 9 Sudeste 23 Sudeste 0 -- -- 32
2019-06-17 14:00:00 29.7 7 Este 23 Sudeste 0 -- -- 34
2019-06-17 13:00:00 28.3 13 Este 27 Este 0 -- -- 35
2019-06-17 12:00:00 26.1 11 Sudeste 22 Sudeste 0 -- -- 43
2019-06-17 11:00:00 24.5 12 Sudeste 19 Sudeste 0 -- -- 47
2019-06-17 10:00:00 22.6 11 Sudeste 16 Sudeste 0 -- -- 50
2019-06-17 09:00:00 20 7 Este 12 Nordeste 0 -- -- 60
2019-06-17 08:00:00 17 8 Nordeste 12 Nordeste 0 -- -- 69
2019-06-17 07:00:00 15.2 3 Este 19 Este 0 -- -- 75
2019-06-17 06:00:00 15.2 14 Este 20 Este 0 -- -- 77
2019-06-17 05:00:00 15.8 12 Este 20 Este 0 -- -- 74
2019-06-17 04:00:00 16.3 10 Este 15 Este 0 -- -- 72
2019-06-17 03:00:00 16.8 8 Nordeste 13 Sudeste 0 -- -- 70
2019-06-17 02:00:00 18 6 Este 21 Este 0 -- -- 69
2019-06-17 01:00:00 20.3 15 Nordeste 24 Nordeste 0 -- -- 54
2019-06-17 00:00:00 21.6 14 Nordeste 25 Nordeste 0 -- -- 50
2019-06-16 23:00:00 21.8 10 Este 17 Sudeste 0 -- -- 47
2019-06-16 22:00:00 23 11 Sudeste 13 Este 0 -- -- 43
2019-06-16 21:00:00 25.8 11 Sudeste 15 Sudeste 0 -- -- 39
2019-06-16 20:00:00 29.1 7 Este 15 Este 0 -- -- 25
2019-06-16 19:00:00 29.1 11 Este 20 Este 0 -- -- 25
2019-06-16 18:00:00 29.6 4 Nordeste 17 Sur 0 -- -- 25
2019-06-16 17:00:00 29.2 4 Sudeste 14 Sudeste 0 -- -- 28
2019-06-16 16:00:00 28.6 5 Noroeste 12 Sur 0 -- -- 31
2019-06-16 15:00:00 27.6 5 Norte 17 Sudeste 0 -- -- 31
2019-06-16 14:00:00 26.5 6 Este 15 Este 0 -- -- 33
2019-06-16 13:00:00 24.9 5 Sudeste 15 Este 0 -- -- 34
2019-06-16 12:00:00 22.7 6 Sudeste 15 Sudeste 0 -- -- 41
2019-06-16 11:00:00 20.2 8 Sudeste 16 Sudeste 0 -- -- 51
2019-06-16 10:00:00 18.7 9 Este 17 Este 0 -- -- 59
2019-06-16 09:00:00 15.1 0 Calma 5 Sudoeste 0 -- -- 67
2019-06-16 08:00:00 12.6 0 Calma 7 Nordeste 0 -- -- 75
2019-06-16 07:00:00 9.9 4 Nordeste 10 Nordeste 0 -- -- 85
2019-06-16 06:00:00 10 3 Sudeste 10 Oeste 0 -- -- 85
2019-06-16 05:00:00 11.2 7 Noroeste 19 Noroeste 0 -- -- 80
2019-06-16 04:00:00 12.3 12 Noroeste 19 Noroeste 0 -- -- 76
2019-06-16 03:00:00 13.4 4 Oeste 17 Oeste 0 -- -- 70
2019-06-16 02:00:00 13.7 9 Oeste 13 Oeste 0 -- -- 69
2019-06-16 01:00:00 13 4 Sudoeste 14 Oeste 0 -- -- 70
2019-06-16 00:00:00 14.7 10 Noroeste 15 Oeste 0 -- -- 64
2019-06-15 23:00:00 16.9 9 Noroeste 14 Noroeste 0 -- -- 55
2019-06-15 22:00:00 19.2 10 Oeste 16 Oeste 0 -- -- 46
2019-06-15 21:00:00 22.5 12 Oeste 27 Oeste 0 -- -- 37
2019-06-15 20:00:00 24.4 15 Oeste 27 Noroeste 0 -- -- 34
2019-06-15 19:00:00 25.1 14 Oeste 34 Oeste 0 -- -- 34
2019-06-15 18:00:00 25.1 16 Oeste 35 Sudoeste 0 -- -- 33
2019-06-15 17:00:00 24.9 18 Oeste 36 Oeste 0 -- -- 32
2019-06-15 16:00:00 24.2 21 Oeste 39 Oeste 0 -- -- 32
2019-06-15 15:00:00 24.1 20 Oeste 40 Oeste 0 -- -- 36
2019-06-15 14:00:00 23.3 19 Oeste 40 Oeste 0 -- -- 36
2019-06-15 13:00:00 21.8 20 Oeste 40 Oeste 0 -- -- 47
2019-06-15 12:00:00 20 22 Oeste 38 Oeste 0 -- -- 53
2019-06-15 11:00:00 18.8 17 Oeste 32 Oeste 0 -- -- 59
2019-06-15 10:00:00 16.8 17 Oeste 36 Oeste 0 -- -- 66
2019-06-15 09:00:00 14.8 15 Oeste 33 Oeste 0 -- -- 74
2019-06-15 08:00:00 12.9 20 Oeste 38 Oeste 0 -- -- 80
2019-06-15 07:00:00 12.1 17 Oeste 31 Noroeste 0 -- -- 83
2019-06-15 06:00:00 12.6 12 Oeste 32 Oeste 0 -- -- 81
2019-06-15 05:00:00 12.6 8 Oeste 15 Noroeste 0 -- -- 86
2019-06-15 04:00:00 12.7 2 Oeste 31 Oeste 0 -- -- 85
2019-06-15 03:00:00 13.6 19 Oeste 33 Oeste 0 -- -- 82
2019-06-15 02:00:00 14.5 9 Oeste 21 Sudoeste 0 -- -- 79
2019-06-15 01:00:00 16.2 10 Oeste 22 Oeste 0 -- -- 74
2019-06-15 00:00:00 21.1 4 Oeste 20 Sudeste 0 -- -- 53
2019-06-14 23:00:00 21.8 15 Este 26 Sudeste 0 -- -- 51
2019-06-14 22:00:00 22.4 13 Este 17 Este 0 -- -- 50
2019-06-14 21:00:00 25.8 9 Este 17 Este 0 -- -- 42
2019-06-14 20:00:00 27.6 13 Este 18 Este 0 -- -- 35
2019-06-14 19:00:00 28.1 6 Este 12 Nordeste 0 -- -- 30
2019-06-14 18:00:00 26.9 6 Norte 13 Nordeste 0 -- -- 32
2019-06-14 17:00:00 25.9 4 Noroeste 10 Sur 0 -- -- 43
2019-06-14 16:00:00 23 4 Norte 13 Sudoeste 0 -- -- 54
2019-06-14 15:00:00 20.7 4 Sudeste 10 Sudoeste 0 -- -- 67
2019-06-14 14:00:00 16.8 7 Norte 16 Noroeste 1 -- -- 77
2019-06-14 13:00:00 17.5 13 Noroeste 21 Sudoeste 0 -- -- 69
2019-06-14 12:00:00 18.2 17 Sudoeste 22 Sudoeste 0 -- -- 58
2019-06-14 11:00:00 17.3 4 Noroeste 10 Noroeste 0 -- -- 61
2019-06-14 10:00:00 15.1 11 Norte 16 Norte 0 -- -- 71
2019-06-14 09:00:00 14.5 2 Sur 7 Sur 0 -- -- 74
2019-06-14 08:00:00 13.7 4 Noroeste 10 Noroeste 0 -- -- 73
2019-06-14 07:00:00 12.9 6 Oeste 12 Oeste 0 -- -- 65
2019-06-14 06:00:00 12.5 5 Noroeste 12 Noroeste 0 -- -- 64
2019-06-14 05:00:00 13.5 3 Este 8 Este 0 -- -- 65
2019-06-14 04:00:00 14.3 4 Este 22 Este 0 -- -- 60
2019-06-14 03:00:00 14.6 13 Este 17 Este 0 -- -- 60
2019-06-14 02:00:00 16.5 8 Este 19 Este 0 -- -- 55
2019-06-14 01:00:00 17.5 14 Este 26 Sudeste 0 -- -- 48
2019-06-14 00:00:00 18 14 Este 31 Este 0 -- -- 53
2019-06-13 23:00:00 18.6 20 Este 33 Este 0 -- -- 52
2019-06-13 22:00:00 19.5 23 Este 35 Este 0 -- -- 49
2019-06-13 21:00:00 20.4 26 Este 47 Este 0 -- -- 49
2019-06-13 20:00:00 22 33 Sudeste 50 Sudeste 0 -- -- 45
2019-06-13 19:00:00 25.3 32 Sudeste 48 Sudeste 0 -- -- 45
2019-06-13 18:00:00 25.9 29 Este 46 Este 0 -- -- 39
2019-06-13 17:00:00 25.4 32 Este 46 Sudeste 0 -- -- 42
2019-06-13 16:00:00 25.5 28 Este 48 Sudeste 0 -- -- 44
2019-06-13 15:00:00 24.1 31 Este 43 Este 0 -- -- 47
2019-06-13 14:00:00 23.8 25 Sudeste 43 Sudeste 0 -- -- 49
2019-06-13 13:00:00 22.6 29 Sudeste 47 Sudeste 0 -- -- 51
2019-06-13 12:00:00 20.7 30 Este 44 Este 0 -- -- 53
2019-06-13 11:00:00 19.1 29 Este 43 Este 0 -- -- 53
2019-06-13 10:00:00 17.7 27 Sudeste 36 Sudeste 0 -- -- 53
2019-06-13 09:00:00 13.8 18 Este 25 Sudeste 0 -- -- 63
2019-06-13 08:00:00 11.8 13 Este 22 Este 0 -- -- 71
2019-06-13 07:00:00 10.1 15 Este 20 Este 0 -- -- 75
2019-06-13 06:00:00 10.4 12 Este 23 Este 0 -- -- 69
2019-06-13 05:00:00 11 11 Este 20 Este 0 -- -- 65
2019-06-13 04:00:00 12.2 16 Este 35 Este 0 -- -- 59
2019-06-13 03:00:00 13.3 20 Este 36 Este 0 -- -- 56
2019-06-13 02:00:00 13.4 18 Este 32 Nordeste 0 -- -- 61
2019-06-13 01:00:00 14.2 21 Nordeste 31 Nordeste 0 -- -- 59
2019-06-13 00:00:00 15.1 17 Este 23 Sudeste 0 -- -- 55
2019-06-12 23:00:00 15.8 17 Sudeste 22 Sudeste 0 -- -- 49
2019-06-12 22:00:00 17.4 14 Sudeste 25 Sudeste 0 -- -- 46
2019-06-12 21:00:00 20.5 16 Sudeste 28 Sudeste 0 -- -- 36
2019-06-12 20:00:00 22.6 14 Sudeste 21 Sudeste 0 -- -- 32
2019-06-12 19:00:00 22.6 3 Noroeste 15 Norte 0 -- -- 30
2019-06-12 18:00:00 22.6 11 Noroeste 17 Norte 0 -- -- 30
2019-06-12 17:00:00 22.1 9 Noroeste 21 Norte 0 -- -- 31
2019-06-12 16:00:00 21.6 6 Noroeste 21 Sudoeste 0 -- -- 34
2019-06-12 15:00:00 20.4 12 Sudoeste 25 Oeste 0 -- -- 36
2019-06-12 14:00:00 19.5 7 Este 21 Sur 0 -- -- 39
2019-06-12 13:00:00 18.3 14 Sudoeste 26 Sudoeste 0 -- -- 40
2019-06-12 12:00:00 17.3 7 Noroeste 16 Noroeste 0 -- -- 46
2019-06-12 11:00:00 15.7 6 Noroeste 16 Noroeste 0 -- -- 48
2019-06-12 10:00:00 13.5 10 Sudoeste 18 Sudoeste 0 -- -- 61
2019-06-12 09:00:00 10.8 8 Sudoeste 11 Sudoeste 0 -- -- 70
2019-06-12 08:00:00 8.5 4 Oeste 13 Sudoeste 0 -- -- 80
2019-06-12 07:00:00 6.1 3 Sur 8 Noroeste 0 -- -- 87
2019-06-12 06:00:00 6.2 3 Noroeste 12 Oeste 0 -- -- 86
2019-06-12 05:00:00 7.1 6 Oeste 16 Noroeste 0 -- -- 81
2019-06-12 04:00:00 7.8 9 Oeste 18 Noroeste 0 -- -- 79
2019-06-12 03:00:00 8.7 12 Oeste 19 Oeste 0 -- -- 74
2019-06-12 02:00:00 8.7 5 Noroeste 15 Oeste 0 -- -- 75
2019-06-12 01:00:00 8.9 5 Oeste 13 Sudoeste 0 -- -- 76
2019-06-12 00:00:00 9.9 4 Oeste 23 Oeste 0 -- -- 70
2019-06-11 23:00:00 11.3 14 Noroeste 34 Oeste 0 -- -- 65
2019-06-11 22:00:00 13.1 23 Oeste 48 Noroeste 0 -- -- 57
2019-06-11 21:00:00 15 26 Noroeste 48 Oeste 0 -- -- 48
2019-06-11 20:00:00 16.5 35 Noroeste 51 Noroeste 0 -- -- 45
2019-06-11 19:00:00 17.7 31 Noroeste 49 Noroeste 0 -- -- 40
2019-06-11 18:00:00 18.4 29 Noroeste 49 Oeste 0 -- -- 40
2019-06-11 17:00:00 18.3 28 Noroeste 46 Noroeste 0 -- -- 40
2019-06-11 16:00:00 18.6 27 Noroeste 46 Noroeste 0 -- -- 39
2019-06-11 15:00:00 18.7 24 Oeste 42 Oeste 0 -- -- 40
2019-06-11 14:00:00 18.3 23 Oeste 43 Noroeste 0 -- -- 43
2019-06-11 13:00:00 16.1 19 Oeste 41 Oeste 0 -- -- 55
2019-06-11 12:00:00 13.2 23 Oeste 40 Oeste 0 -- -- 74
2019-06-11 11:00:00 11.7 21 Oeste 37 Oeste 0.2 -- -- 81
2019-06-11 10:00:00 10.9 14 Oeste 23 Oeste 0 -- -- 85
2019-06-11 09:00:00 10 14 Oeste 27 Oeste 0 -- -- 87
2019-06-11 08:00:00 9.6 15 Oeste 24 Oeste 0 -- -- 88
2019-06-11 07:00:00 9.9 10 Oeste 23 Oeste 0.2 -- -- 85
2019-06-11 06:00:00 11 12 Oeste 26 Oeste 0 -- -- 75
2019-06-11 05:00:00 10.7 6 Noroeste 16 Oeste 0 -- -- 75
2019-06-11 04:00:00 10.9 7 Oeste 14 Oeste 0.4 -- -- 76
2019-06-11 03:00:00 11.3 8 Sudoeste 23 Oeste 0 -- -- 79
2019-06-11 02:00:00 12.7 16 Sudoeste 25 Sudoeste 0 -- -- 61
2019-06-11 01:00:00 13.6 8 Oeste 22 Oeste 0 -- -- 55
2019-06-11 00:00:00 14.1 10 Oeste 20 Oeste 0 -- -- 56
2019-06-10 23:00:00 14.2 14 Oeste 28 Oeste 0 -- -- 59
2019-06-10 22:00:00 15.1 8 Oeste 35 Oeste 0 -- -- 57
2019-06-10 21:00:00 16.7 21 Oeste 39 Oeste 0 -- -- 52
2019-06-10 20:00:00 17.9 23 Oeste 42 Oeste 0 -- -- 43
2019-06-10 19:00:00 21 26 Oeste 50 Oeste 0 -- -- 33
2019-06-10 18:00:00 21.3 25 Oeste 44 Oeste 0 -- -- 33
2019-06-10 17:00:00 22.4 25 Oeste 46 Noroeste 0 -- -- 35
2019-06-10 16:00:00 22.3 26 Oeste 45 Oeste 0 -- -- 39
2019-06-10 15:00:00 21.5 26 Oeste 48 Oeste 0 -- -- 44
2019-06-10 14:00:00 20.9 26 Oeste 50 Oeste 0 -- -- 49
2019-06-10 13:00:00 19.9 25 Oeste 46 Oeste 0 -- -- 52
2019-06-10 12:00:00 18.9 24 Oeste 46 Oeste 0 -- -- 55
2019-06-10 11:00:00 17.4 23 Oeste 40 Oeste 0 -- -- 59
2019-06-10 10:00:00 15.4 22 Oeste 41 Oeste 0 -- -- 67
2019-06-10 09:00:00 13.9 23 Oeste 41 Oeste 0 -- -- 75
2019-06-10 08:00:00 12.1 19 Oeste 39 Oeste 0 -- -- 81
2019-06-10 07:00:00 11.3 17 Oeste 35 Oeste 0 -- -- 83
2019-06-10 06:00:00 11.9 16 Oeste 37 Oeste 0 -- -- 82
2019-06-10 05:00:00 12.2 18 Oeste 33 Oeste 0 -- -- 82
2019-06-10 04:00:00 13 15 Oeste 36 Oeste 0 -- -- 80
2019-06-10 03:00:00 13.7 19 Oeste 41 Noroeste 0 -- -- 79
2019-06-10 02:00:00 13.9 19 Oeste 40 Noroeste 0.6 -- -- 80
2019-06-10 01:00:00 15.4 17 Oeste 38 Oeste 0 -- -- 73
2019-06-10 00:00:00 15.7 16 Oeste 39 Oeste 0 -- -- 73
2019-06-09 23:00:00 17 18 Oeste 39 Oeste 0 -- -- 68
2019-06-09 22:00:00 20.4 20 Oeste 36 Oeste 0 -- -- 57
2019-06-09 21:00:00 26.5 11 Oeste 20 Oeste 0 -- -- 33
2019-06-09 20:00:00 28.6 6 Oeste 10 Oeste 0 -- -- 26
2019-06-09 19:00:00 29.5 6 Noroeste 13 Noroeste 0 -- -- 26
2019-06-09 18:00:00 29 6 Norte 23 Noroeste 0 -- -- 26
2019-06-09 17:00:00 28.8 5 Oeste 13 Noroeste 0 -- -- 29
2019-06-09 16:00:00 28.3 6 Noroeste 17 Este 0 -- -- 28
2019-06-09 15:00:00 27.8 12 Este 21 Este 0 -- -- 34
2019-06-09 14:00:00 26.6 10 Este 24 Este 0 -- -- 32
2019-06-09 13:00:00 25.4 10 Sudeste 23 Este 0 -- -- 37
2019-06-09 12:00:00 23.7 16 Sudeste 27 Sudeste 0 -- -- 36
2019-06-09 11:00:00 22.4 15 Sudeste 24 Este 0 -- -- 41
2019-06-09 10:00:00 21.2 13 Sudeste 19 Sudeste 0 -- -- 48
2019-06-09 09:00:00 19 9 Este 13 Este 0 -- -- 51
2019-06-09 08:00:00 15.1 8 Este 12 Este 0 -- -- 58
2019-06-09 07:00:00 13.9 5 Nordeste 8 Nordeste 0 -- -- 67
2019-06-09 06:00:00 13.7 6 Este 13 Este 0 -- -- 69
2019-06-09 05:00:00 14 5 Este 16 Este 0 -- -- 67
2019-06-09 04:00:00 14.7 11 Este 18 Sudeste 0 -- -- 63
2019-06-09 03:00:00 15.4 13 Este 23 Este 0 -- -- 61
2019-06-09 02:00:00 15.6 9 Este 27 Este 0 -- -- 59
2019-06-09 01:00:00 16.9 17 Este 36 Este 0 -- -- 51
2019-06-09 00:00:00 17.4 24 Este 41 Este 0 -- -- 51
2019-06-08 23:00:00 18.2 28 Este 41 Este 0 -- -- 45
2019-06-08 22:00:00 19.2 24 Este 36 Este 0 -- -- 44
2019-06-08 21:00:00 21.3 24 Este 39 Sudeste 0 -- -- 42
2019-06-08 20:00:00 23.5 26 Sudeste 46 Este 0 -- -- 39
2019-06-08 19:00:00 24.6 29 Este 43 Este 0 -- -- 37
2019-06-08 18:00:00 24.8 22 Este 33 Nordeste 0 -- -- 39
2019-06-08 17:00:00 25.2 21 Este 35 Este 0 -- -- 34
2019-06-08 16:00:00 24.9 18 Este 34 Sudeste 0 -- -- 37
2019-06-08 15:00:00 24 18 Sudeste 34 Sudeste 0 -- -- 39
2019-06-08 14:00:00 23.3 21 Sudeste 33 Sudeste 0 -- -- 40
2019-06-08 13:00:00 22.5 20 Sudeste 33 Sudeste 0 -- -- 42
2019-06-08 12:00:00 21.3 10 Este 22 Este 0 -- -- 41
2019-06-08 11:00:00 17.9 2 Noroeste 10 Oeste 0 -- -- 47
2019-06-08 10:00:00 14.8 3 Noroeste 10 Oeste 0 -- -- 63
2019-06-08 09:00:00 12.8 2 Noroeste 6 Oeste 0 -- -- 70
2019-06-08 08:00:00 9.8 3 Oeste 10 Oeste 0 -- -- 81
2019-06-08 07:00:00 8.2 4 Oeste 9 Oeste 0 -- -- 85
2019-06-08 06:00:00 8.4 5 Noroeste 15 Noroeste 0 -- -- 84
2019-06-08 05:00:00 8.9 9 Oeste 15 Oeste 0 -- -- 82
2019-06-08 04:00:00 9.5 8 Noroeste 15 Noroeste 0 -- -- 82
2019-06-08 03:00:00 9.6 5 Noroeste 10 Noroeste 0 -- -- 78
2019-06-08 02:00:00 11 5 Noroeste 9 Oeste 0 -- -- 71
2019-06-08 01:00:00 11.7 5 Oeste 8 Oeste 0 -- -- 67
2019-06-08 00:00:00 13.8 2 Sur 29 Noroeste 0 -- -- 58
2019-06-07 23:00:00 16.5 5 Nordeste 30 Noroeste 0 -- -- 43
2019-06-07 22:00:00 16.4 5 Noroeste 17 Noroeste 0 -- -- 50
2019-06-07 21:00:00 19.7 12 Noroeste 25 Oeste 0 -- -- 39
2019-06-07 20:00:00 21.9 10 Noroeste 26 Noroeste 0 -- -- 33
2019-06-07 19:00:00 22.2 18 Noroeste 31 Oeste 0 -- -- 31
2019-06-07 18:00:00 22.5 11 Oeste 29 Noroeste 0 -- -- 30
2019-06-07 17:00:00 22.3 13 Oeste 42 Oeste 0 -- -- 31
2019-06-07 16:00:00 20.8 19 Noroeste 31 Oeste 0 -- -- 33
2019-06-07 15:00:00 20.9 12 Oeste 24 Oeste 0 -- -- 38
2019-06-07 14:00:00 20.1 8 Oeste 23 Oeste 0 -- -- 40
2019-06-07 13:00:00 18.7 12 Oeste 29 Oeste 0 -- -- 45
2019-06-07 12:00:00 17 14 Noroeste 29 Oeste 0 -- -- 52
2019-06-07 11:00:00 16 16 Oeste 29 Oeste 0 -- -- 57
2019-06-07 10:00:00 14.4 5 Noroeste 22 Sur 0 -- -- 66
2019-06-07 09:00:00 12.4 11 Sudoeste 17 Sudoeste 1 -- -- 85
2019-06-07 08:00:00 12.7 8 Oeste 29 Sur 1.4 -- -- 85
2019-06-07 07:00:00 13.4 13 Sudeste 22 Sudeste 0.4 -- -- 88
2019-06-07 06:00:00 14 17 Sudeste 33 Sudeste 0 -- -- 81
2019-06-07 05:00:00 14.4 18 Este 29 Este 0 -- -- 77
2019-06-07 04:00:00 15 23 Este 44 Este 0 -- -- 72
2019-06-07 03:00:00 15.4 26 Este 40 Este 0 -- -- 70
2019-06-07 02:00:00 15.3 21 Este 35 Este 0 -- -- 74
2019-06-07 01:00:00 16.2 23 Este 43 Este 0 -- -- 71
2019-06-07 00:00:00 16.5 26 Este 50 Este 0 -- -- 68
2019-06-06 23:00:00 17.3 33 Este 53 Este 0 -- -- 61
2019-06-06 22:00:00 18.6 34 Este 53 Este 0 -- -- 56
2019-06-06 21:00:00 20.5 31 Este 55 Este 0 -- -- 50
2019-06-06 20:00:00 21.5 39 Este 62 Este 0 -- -- 48
2019-06-06 19:00:00 22.3 38 Este 60 Este 0 -- -- 47
2019-06-06 18:00:00 22.9 41 Este 60 Este 0 -- -- 44
2019-06-06 17:00:00 24.4 37 Este 51 Este 0 -- -- 36
2019-06-06 16:00:00 24.1 24 Sudeste 48 Este 0 -- -- 36
2019-06-06 15:00:00 22.7 24 Este 40 Este 0 -- -- 39
2019-06-06 14:00:00 21.8 20 Este 36 Este 0 -- -- 44
2019-06-06 13:00:00 20.2 19 Sudeste 34 Este 0 -- -- 47
2019-06-06 12:00:00 19.2 17 Sudeste 29 Sudeste 0 -- -- 49
2019-06-06 11:00:00 17.3 6 Este 12 Nordeste 0 -- -- 59
2019-06-06 10:00:00 14.8 3 Nordeste 12 Noroeste 0 -- -- 64
2019-06-06 09:00:00 12.1 5 Noroeste 10 Oeste 0 -- -- 75
2019-06-06 08:00:00 10.2 2 Oeste 8 Oeste 0 -- -- 83
2019-06-06 07:00:00 9.5 5 Noroeste 9 Noroeste 0 -- -- 86
2019-06-06 06:00:00 9.6 2 Sudoeste 10 Noroeste 0 -- -- 84
2019-06-06 05:00:00 10.3 6 Oeste 16 Oeste 0 -- -- 77
2019-06-06 04:00:00 10.4 8 Sudoeste 17 Oeste 0 -- -- 80
2019-06-06 03:00:00 10.7 9 Oeste 19 Oeste 0 -- -- 78
2019-06-06 02:00:00 11.3 13 Oeste 21 Oeste 0 -- -- 75
2019-06-06 01:00:00 11.7 6 Oeste 16 Sudoeste 0 -- -- 70
2019-06-06 00:00:00 11 6 Oeste 13 Sudoeste 0 -- -- 71
2019-06-05 23:00:00 11.3 9 Noroeste 19 Oeste 0 -- -- 71
2019-06-05 22:00:00 13.2 11 Oeste 29 Noroeste 0 -- -- 62
2019-06-05 21:00:00 16.1 18 Noroeste 36 Noroeste 0 -- -- 51
2019-06-05 20:00:00 17.8 26 Noroeste 42 Oeste 0 -- -- 47
2019-06-05 19:00:00 18.7 25 Noroeste 50 Noroeste 0 -- -- 45
2019-06-05 18:00:00 18.4 35 Noroeste 50 Oeste 0 -- -- 48
2019-06-05 17:00:00 18.1 28 Noroeste 56 Noroeste 0 -- -- 50
2019-06-05 16:00:00 18.1 36 Oeste 65 Oeste 0 -- -- 50
2019-06-05 15:00:00 17.9 27 Oeste 45 Oeste 0 -- -- 52
2019-06-05 14:00:00 16.1 22 Oeste 38 Oeste 0 -- -- 64
2019-06-05 13:00:00 16.8 17 Oeste 35 Oeste 0 -- -- 69
2019-06-05 12:00:00 14.2 17 Oeste 31 Oeste 0.2 -- -- 84
2019-06-05 11:00:00 11.9 12 Oeste 27 Oeste 1 -- -- 92
2019-06-05 10:00:00 11.9 17 Oeste 42 Oeste 0 -- -- 91
2019-06-05 09:00:00 12.7 13 Oeste 22 Oeste 0 -- -- 86
2019-06-05 08:00:00 13.7 5 Norte 14 Oeste 0 -- -- 84
2019-06-05 07:00:00 12.7 13 Noroeste 27 Noroeste 0 -- -- 84
2019-06-05 06:00:00 13.1 10 Oeste 19 Noroeste 0 -- -- 82
2019-06-05 05:00:00 13.6 12 Noroeste 20 Noroeste 0 -- -- 80
2019-06-05 04:00:00 13.8 13 Noroeste 19 Noroeste 0 -- -- 80
2019-06-05 03:00:00 15.4 8 Noroeste 14 Este 0 -- -- 76
2019-06-05 02:00:00 17.3 10 Este 21 Este 0 -- -- 62
2019-06-05 01:00:00 18.9 15 Sudeste 26 Sudeste 0 -- -- 58
2019-06-05 00:00:00 19.3 19 Sudeste 33 Este 0 -- -- 60
2019-06-04 23:00:00 20.8 24 Este 49 Este 0 -- -- 57
2019-06-04 22:00:00 21.7 26 Este 48 Este 0 -- -- 56
2019-06-04 21:00:00 23.9 33 Este 46 Este 0 -- -- 52
2019-06-04 20:00:00 27.4 29 Sudeste 43 Sudeste 0 -- -- 42
2019-06-04 19:00:00 30.7 29 Sudeste 45 Sudeste 0 -- -- 35
2019-06-04 18:00:00 31.1 27 Sudeste 40 Sudeste 0 -- -- 33
2019-06-04 17:00:00 31.3 27 Sudeste 42 Este 0 -- -- 33
2019-06-04 16:00:00 31 21 Este 35 Sudeste 0 -- -- 31
2019-06-04 15:00:00 30 24 Sudeste 35 Sudeste 0 -- -- 34
2019-06-04 14:00:00 28.5 22 Sudeste 35 Sudeste 0 -- -- 36
2019-06-04 13:00:00 26.4 22 Este 36 Sudeste 0 -- -- 37
2019-06-04 12:00:00 24.5 24 Este 35 Este 0 -- -- 40
2019-06-04 11:00:00 22.5 22 Sudeste 33 Sudeste 0 -- -- 45
2019-06-04 10:00:00 20.5 21 Sudeste 36 Este 0 -- -- 47
2019-06-04 09:00:00 17.8 15 Este 23 Este 0 -- -- 56
2019-06-04 08:00:00 15.3 15 Este 21 Este 0 -- -- 64
2019-06-04 07:00:00 14.4 14 Este 20 Este 0 -- -- 65
2019-06-04 06:00:00 14.1 15 Este 19 Sudeste 0 -- -- 66
2019-06-04 05:00:00 14.3 14 Este 23 Este 0 -- -- 66
2019-06-04 04:00:00 14.9 17 Este 24 Este 0 -- -- 65
2019-06-04 03:00:00 17.1 17 Este 31 Este 0 -- -- 54
2019-06-04 02:00:00 17.8 22 Este 30 Este 0 -- -- 53
2019-06-04 01:00:00 18.4 20 Este 37 Este 0 -- -- 52
2019-06-04 00:00:00 19.3 17 Este 35 Este 0 -- -- 50
2019-06-03 23:00:00 20.9 22 Este 32 Este -- -- -- 53
2019-06-03 22:00:00 23.2 19 Este 32 Este 0 -- -- 51
2019-06-03 21:00:00 26.1 26 Este 44 Este 0 -- -- 40
2019-06-03 20:00:00 28.5 28 Este 38 Este 0 -- -- 37
2019-06-03 19:00:00 30.4 21 Este 33 Este 0 -- -- 33
2019-06-03 18:00:00 30.3 20 Este 32 Sudeste 0 -- -- 31
2019-06-03 17:00:00 30.7 21 Sudeste 30 Sudeste 0 -- -- 32
2019-06-03 16:00:00 30.1 12 Este 23 Sudeste 0 -- -- 32
2019-06-03 15:00:00 29.6 15 Sudeste 26 Sudeste 0 -- -- 31
2019-06-03 14:00:00 28.2 15 Sudeste 24 Sudeste 0 -- -- 37
2019-06-03 13:00:00 26.4 17 Sudeste 28 Este 0 -- -- 40
2019-06-03 12:00:00 24.8 18 Sudeste 30 Este 0 -- -- 44
2019-06-03 11:00:00 24 19 Sudeste 28 Sudeste 0 -- -- 38
2019-06-03 10:00:00 21.6 15 Sudeste 28 Este 0 -- -- 42
2019-06-03 09:00:00 20.2 12 Este 22 Nordeste 0 -- -- 43
2019-06-03 08:00:00 16.9 10 Nordeste 15 Nordeste 0 -- -- 55
2019-06-03 07:00:00 15.3 8 Nordeste 12 Nordeste 0 -- -- 60
2019-06-03 06:00:00 15.5 2 Norte 13 Este 0 -- -- 62
2019-06-03 05:00:00 17.1 9 Este 30 Este 0 -- -- 55
2019-06-03 04:00:00 18.5 20 Este 34 Este 0 -- -- 49
2019-06-03 03:00:00 18.8 21 Este 33 Sudeste 0 -- -- 51
2019-06-03 02:00:00 19.2 25 Sudeste 36 Sudeste 0 -- -- 54
2019-06-03 01:00:00 20.6 6 Sudeste 28 Este 0 -- -- 50
2019-06-03 00:00:00 21.7 17 Este 28 Este 0 -- -- 42
2019-06-02 23:00:00 22.8 19 Este 31 Este 0 -- -- 44
2019-06-02 22:00:00 24.4 18 Este 35 Este 0 -- -- 41
2019-06-02 21:00:00 27.1 20 Este 29 Este 0 -- -- 38
2019-06-02 20:00:00 30.6 14 Sudeste 24 Este 0 -- -- 34
2019-06-02 19:00:00 31.4 18 Este 26 Este 0 -- -- 30
2019-06-02 18:00:00 32.4 13 Sudeste 25 Este 0 -- -- 30
2019-06-02 17:00:00 32.1 13 Sudeste 22 Sudeste 0 -- -- 31
2019-06-02 16:00:00 31.6 10 Este 19 Sudeste 0 -- -- 30
2019-06-02 15:00:00 30.7 11 Sudeste 19 Sudeste 0 -- -- 31
2019-06-02 14:00:00 29.3 12 Sudeste 25 Sudeste 0 -- -- 33
2019-06-02 13:00:00 27.8 18 Sudeste 24 Sudeste 0 -- -- 33
2019-06-02 12:00:00 26 15 Sudeste 23 Sudeste 0 -- -- 37
2019-06-02 11:00:00 24.2 12 Sudeste 22 Sudeste 0 -- -- 39
2019-06-02 10:00:00 22.1 13 Sudeste 21 Sudeste 0 -- -- 47
2019-06-02 09:00:00 19.8 10 Sudeste 14 Sudeste 0 -- -- 53
2019-06-02 08:00:00 16.7 6 Este 10 Este 0 -- -- 62
2019-06-02 07:00:00 14 8 Este 20 Nordeste 0 -- -- 69
2019-06-02 06:00:00 14.3 15 Este 21 Este 0 -- -- 69
2019-06-02 05:00:00 14.5 10 Este 16 Este 0 -- -- 69
2019-06-02 04:00:00 14.7 4 Este 5 Este 0 -- -- 71
2019-06-02 03:00:00 15.6 3 Sur 13 Este 0 -- -- 69
2019-06-02 02:00:00 17.4 6 Este 23 Este 0 -- -- 59
2019-06-02 01:00:00 18.5 13 Este 24 Nordeste 0 -- -- 59
2019-06-02 00:00:00 19.6 16 Nordeste 27 Nordeste 0 -- -- 59
2019-06-01 23:00:00 21.1 14 Sudeste 28 Este 0 -- -- 55
2019-06-01 22:00:00 23.6 17 Este 24 Este 0 -- -- 48
2019-06-01 21:00:00 27.7 9 Este 14 Este 0 -- -- 37
2019-06-01 20:00:00 30.1 11 Este 16 Este 0 -- -- 29
2019-06-01 19:00:00 30.9 7 Sudeste 20 Sudeste 0 -- -- 30
2019-06-01 18:00:00 30.9 10 Sudeste 19 Este 0 -- -- 30
2019-06-01 17:00:00 30.6 9 Sudeste 19 Sudeste 0 -- -- 31
2019-06-01 16:00:00 30.2 10 Sudeste 22 Sudeste 0 -- -- 30
2019-06-01 15:00:00 29.5 14 Sudeste 23 Sudeste 0 -- -- 30
2019-06-01 14:00:00 28.2 15 Sudeste 27 Sudeste 0 -- -- 33
2019-06-01 13:00:00 26.5 19 Sudeste 30 Este 0 -- -- 39
2019-06-01 12:00:00 25.2 16 Sudeste 27 Sudeste 0 -- -- 46
2019-06-01 11:00:00 23.5 18 Sudeste 24 Sudeste 0 -- -- 50
2019-06-01 10:00:00 21.2 15 Este 22 Este 0 -- -- 56
2019-06-01 09:00:00 18.9 13 Este 18 Este 0 -- -- 62
2019-06-01 08:00:00 16.1 10 Este 14 Este 0 -- -- 71
2019-06-01 07:00:00 12.8 6 Nordeste 10 Este 0 -- -- 82
2019-06-01 06:00:00 13.1 5 Este 8 Nordeste 0 -- -- 81
2019-06-01 05:00:00 13.2 3 Norte 6 Este 0 -- -- 82
2019-06-01 04:00:00 14.7 2 Este 15 Este 0 -- -- 77
2019-06-01 03:00:00 15.7 11 Este 17 Nordeste 0 -- -- 74
2019-06-01 02:00:00 16.3 13 Este 25 Este 0 -- -- 73
2019-06-01 01:00:00 17.5 14 Nordeste 24 Nordeste 0 -- -- 70
2019-06-01 00:00:00 18.8 17 Este 27 Nordeste 0 -- -- 66
2019-05-31 23:00:00 20.9 13 Este 25 Este 0 -- -- 61
2019-05-31 22:00:00 22.9 16 Este 22 Este 0 -- -- 52
2019-05-31 21:00:00 26.1 9 Este 13 Este 0 -- -- 41
2019-05-31 20:00:00 28.1 9 Sudeste 12 Sudeste 0 -- -- 37
2019-05-31 19:00:00 29.6 4 Sudeste 9 Sur 0 -- -- 28
2019-05-31 18:00:00 29 4 Sudeste 13 Sudeste 0 -- -- 30
2019-05-31 17:00:00 28.1 5 Noroeste 19 Este 0 -- -- 33
2019-05-31 16:00:00 27.1 9 Sur 18 Sudeste 0 -- -- 36
2019-05-31 15:00:00 26.6 11 Sudeste 24 Sudeste 0 -- -- 37
2019-05-31 14:00:00 25.2 12 Este 24 Sudeste 0 -- -- 42
2019-05-31 13:00:00 24.1 13 Sudeste 22 Sudeste 0 -- -- 47
2019-05-31 12:00:00 22.7 9 Este -- -- -- -- -- 51
2019-05-31 11:00:00 20.6 14 Sudeste 21 Sudeste 0 -- -- 51
2019-05-31 10:00:00 18.9 14 Sudeste 21 Sudeste 0 -- -- 61
2019-05-31 09:00:00 17.3 9 Sudeste 14 Sudeste 0 -- -- 68
2019-05-31 08:00:00 14.2 7 Este 12 Este 0 -- -- 78
2019-05-31 07:00:00 11.6 6 Este 8 Este 0 -- -- 85
2019-05-31 06:00:00 11.1 3 Nordeste 5 Este 0 -- -- 87
2019-05-31 05:00:00 11.7 0 Calma 12 Nordeste 0 -- -- 85
2019-05-31 04:00:00 13.2 9 Nordeste 17 Este 0 -- -- 81
2019-05-31 03:00:00 14.1 11 Nordeste 19 Este 0 -- -- 79
2019-05-31 02:00:00 15 10 Este 18 Este 0 -- -- 75
2019-05-31 01:00:00 15.1 10 Este 14 Este 0 -- -- 71
2019-05-31 00:00:00 17 4 Norte 9 Noroeste 0 -- -- 63
2019-05-30 23:00:00 20.3 3 Oeste 12 Sudoeste 0 -- -- 50
2019-05-30 22:00:00 22 11 Sudoeste 19 Sudoeste 0 -- -- 48
2019-05-30 21:00:00 25 8 Sur 21 Sur 0 -- -- 42
2019-05-30 20:00:00 27.4 14 Sudoeste 20 Sudoeste 0 -- -- 35
2019-05-30 19:00:00 27.7 14 Sudoeste 23 Sudoeste 0 -- -- 34
2019-05-30 18:00:00 27.9 10 Oeste 21 Sudoeste 0 -- -- 30
2019-05-30 17:00:00 27.2 10 Sudoeste 19 Sudoeste 0 -- -- 34
2019-05-30 16:00:00 26.6 7 Oeste 18 Sudoeste 0 -- -- 37
2019-05-30 15:00:00 24.8 7 Noroeste 17 Noroeste 0 -- -- 40
2019-05-30 14:00:00 23.4 5 Noroeste 24 Oeste 0 -- -- 39
2019-05-30 13:00:00 22.1 6 Noroeste 18 Sudoeste 0 -- -- 44
2019-05-30 12:00:00 20.3 4 Noroeste 12 Sudoeste 0 -- -- 49
2019-05-30 11:00:00 18.3 3 Sudeste 9 Sudoeste 0 -- -- 57
2019-05-30 10:00:00 15.2 4 Sudoeste 10 Oeste 0 -- -- 69
2019-05-30 09:00:00 12.4 3 Oeste 8 Noroeste 0 -- -- 74
2019-05-30 08:00:00 9.7 3 Noroeste 6 Noroeste 0 -- -- 85
2019-05-30 07:00:00 7.7 0 Calma 4 Oeste 0 -- -- 90
2019-05-30 06:00:00 7.9 5 Noroeste 8 Noroeste 0 -- -- 88
2019-05-30 05:00:00 8.7 6 Noroeste 11 Noroeste 0 -- -- 83
2019-05-30 04:00:00 9.3 8 Noroeste 12 Oeste 0 -- -- 82
2019-05-30 03:00:00 10 4 Noroeste 14 Noroeste 0 -- -- 80
2019-05-30 02:00:00 10.7 7 Oeste 18 Oeste 0 -- -- 77
2019-05-30 01:00:00 11.4 8 Oeste 25 Oeste 0 -- -- 74
2019-05-30 00:00:00 12.3 19 Noroeste 29 Oeste 0 -- -- 71
2019-05-29 23:00:00 13.6 13 Oeste 29 Oeste 0 -- -- 66
2019-05-29 22:00:00 15.1 16 Oeste 39 Noroeste 0 -- -- 60
2019-05-29 21:00:00 18 30 Noroeste 39 Noroeste 0 -- -- 50
2019-05-29 20:00:00 20.5 17 Oeste 43 Noroeste 0 -- -- 45
2019-05-29 19:00:00 21 32 Noroeste 54 Noroeste 0 -- -- 42
2019-05-29 18:00:00 21 32 Oeste 50 Oeste 0 -- -- 42
2019-05-29 17:00:00 21.7 27 Oeste 45 Sudoeste 0 -- -- 41
2019-05-29 16:00:00 22.1 25 Noroeste 44 Noroeste 0 -- -- 33
2019-05-29 15:00:00 21.5 27 Noroeste 44 Noroeste 0 -- -- 34
2019-05-29 14:00:00 20.2 26 Noroeste 39 Noroeste 0 -- -- 35
2019-05-29 13:00:00 19.3 21 Noroeste 39 Oeste 0 -- -- 39
2019-05-29 12:00:00 18.2 22 Noroeste 40 Noroeste 0 -- -- 44
2019-05-29 11:00:00 17 26 Noroeste 40 Noroeste 0 -- -- 44
2019-05-29 10:00:00 15.9 25 Noroeste 42 Noroeste 0 -- -- 49
2019-05-29 09:00:00 13.8 14 Noroeste 26 Oeste 0 -- -- 61
2019-05-29 08:00:00 11.2 14 Oeste 24 Noroeste 0 -- -- 73
2019-05-29 07:00:00 9.1 8 Oeste 16 Oeste 0 -- -- 76
2019-05-29 06:00:00 9 13 Noroeste 31 Oeste 0 -- -- 78
2019-05-29 05:00:00 9.5 20 Noroeste 48 Noroeste 0 -- -- 77
2019-05-29 04:00:00 9.7 35 Noroeste 49 Oeste 0 -- -- 77
2019-05-29 03:00:00 9.8 35 Noroeste 52 Oeste 0 -- -- 77
2019-05-29 02:00:00 10.3 28 Noroeste 41 Oeste 0 -- -- 74
2019-05-29 01:00:00 10.7 23 Oeste 36 Oeste 0 -- -- 73
2019-05-29 00:00:00 11.2 21 Oeste 43 Oeste 0 -- -- 71
2019-05-28 23:00:00 11.9 24 Oeste 47 Oeste 0 -- -- 67
2019-05-28 22:00:00 12.8 27 Noroeste 55 Noroeste 0 -- -- 60
2019-05-28 21:00:00 14.7 35 Noroeste 63 Noroeste 0 -- -- 52
2019-05-28 20:00:00 16.3 30 Noroeste 67 Noroeste 0 -- -- 50
2019-05-28 19:00:00 17.3 36 Noroeste 71 Noroeste 0 -- -- 43
2019-05-28 18:00:00 17.4 54 Noroeste 76 Noroeste 0 -- -- 45
2019-05-28 17:00:00 19.1 49 Noroeste 69 Noroeste 0 -- -- 44
2019-05-28 16:00:00 19.6 44 Noroeste 73 Noroeste 0 -- -- 40
2019-05-28 15:00:00 19 43 Noroeste 64 Noroeste 0 -- -- 44
2019-05-28 14:00:00 19.1 39 Noroeste 58 Noroeste 0 -- -- 43
2019-05-28 13:00:00 19.3 27 Noroeste 48 Noroeste 0 -- -- 47
2019-05-28 12:00:00 18.6 34 Noroeste 50 Noroeste 0 -- -- 45
2019-05-28 11:00:00 17.6 26 Noroeste 43 Noroeste 0 -- -- 45
2019-05-28 10:00:00 15.7 29 Noroeste 49 Oeste 0 -- -- 53
2019-05-28 09:00:00 12.9 29 Oeste 47 Oeste 0 -- -- 68
2019-05-28 08:00:00 11.3 22 Oeste 39 Oeste 0 -- -- 73
2019-05-28 07:00:00 10.3 25 Oeste 41 Noroeste 0 -- -- 76
2019-05-28 06:00:00 10.1 21 Oeste 39 Oeste 0 -- -- 75
2019-05-28 05:00:00 10.5 22 Oeste 39 Noroeste 0 -- -- 72
2019-05-28 04:00:00 11.1 24 Oeste 38 Oeste 0 -- -- 66
2019-05-28 03:00:00 11.2 19 Oeste 37 Oeste 0 -- -- 74
2019-05-28 02:00:00 11.7 22 Oeste 42 Oeste 0 -- -- 76
2019-05-28 01:00:00 12.5 24 Oeste 39 Oeste 0 -- -- 69
2019-05-28 00:00:00 13.7 15 Oeste 37 Noroeste 0 -- -- 65
2019-05-27 23:00:00 15 17 Oeste 31 Oeste 0 -- -- 68
2019-05-27 22:00:00 16.1 16 Oeste 45 Noroeste 0 -- -- 68
2019-05-27 21:00:00 19.2 23 Oeste 48 Noroeste 0 -- -- 56
2019-05-27 20:00:00 20.9 32 Noroeste 49 Noroeste 0 -- -- 50
2019-05-27 19:00:00 22.2 35 Noroeste 54 Noroeste 0 -- -- 48
2019-05-27 18:00:00 23.4 30 Oeste 47 Oeste 0 -- -- 49
2019-05-27 17:00:00 24 30 Oeste 53 Noroeste 0 -- -- 47
2019-05-27 16:00:00 23.3 31 Oeste 49 Oeste 0 -- -- 51
2019-05-27 15:00:00 22.1 25 Oeste 46 Oeste 0 -- -- 57
2019-05-27 14:00:00 21.8 17 Oeste 33 Sudoeste 0 -- -- 52
2019-05-27 13:00:00 19.2 19 Oeste 36 Oeste 0 -- -- 61
2019-05-27 12:00:00 18.7 17 Oeste 31 Oeste 0 -- -- 62
2019-05-27 11:00:00 18 14 Oeste 29 Oeste 0 -- -- 61
2019-05-27 10:00:00 16 17 Oeste 34 Oeste 0 -- -- 66
2019-05-27 09:00:00 13.5 15 Oeste 34 Oeste 0 -- -- 77
2019-05-27 08:00:00 12 20 Oeste 35 Oeste 0 -- -- 81
2019-05-27 07:00:00 10.5 18 Oeste 33 Noroeste 0 -- -- 87
2019-05-27 06:00:00 10.4 17 Oeste 33 Oeste 0 -- -- 87
2019-05-27 05:00:00 10.6 12 Oeste 26 Noroeste 0 -- -- 86
2019-05-27 04:00:00 10.9 11 Oeste 27 Oeste 0 -- -- 85
2019-05-27 03:00:00 11.4 14 Oeste 27 Oeste 0 -- -- 82
2019-05-27 02:00:00 12 12 Oeste 37 Oeste 0 -- -- 80
2019-05-27 01:00:00 12.4 19 Oeste 34 Oeste 0 -- -- 78
2019-05-27 00:00:00 12.8 19 Oeste 35 Oeste 0 -- -- 77
2019-05-26 23:00:00 13.3 16 Oeste 35 Oeste 0 -- -- 77
2019-05-26 22:00:00 14.7 21 Oeste 35 Oeste 0 -- -- 71
2019-05-26 21:00:00 17.4 16 Oeste 39 Oeste 0 -- -- 63
2019-05-26 20:00:00 20 23 Oeste 42 Oeste 0 -- -- 52
2019-05-26 19:00:00 21.7 24 Oeste 47 Oeste 0 -- -- 47
2019-05-26 18:00:00 23.1 23 Oeste 40 Oeste 0 -- -- 44
2019-05-26 17:00:00 23.3 20 Oeste 39 Sudoeste 0 -- -- 45
2019-05-26 16:00:00 23.1 20 Oeste 44 Sudoeste 0 -- -- 44
2019-05-26 15:00:00 22.6 22 Oeste 38 Sudoeste 0 -- -- 48
2019-05-26 14:00:00 21.4 20 Oeste 39 Oeste 0 -- -- 52
2019-05-26 13:00:00 20.5 21 Sudoeste 37 Sudoeste 0 -- -- 56
2019-05-26 12:00:00 19.2 15 Oeste 32 Oeste 0 -- -- 52
2019-05-26 11:00:00 17.5 16 Oeste 33 Oeste 0 -- -- 60
2019-05-26 10:00:00 15.1 20 Oeste 37 Oeste 0 -- -- 67
2019-05-26 09:00:00 12.9 20 Oeste 39 Oeste 0 -- -- 75
2019-05-26 08:00:00 10.9 15 Oeste 29 Oeste 0 -- -- 84
2019-05-26 07:00:00 9.5 14 Oeste 29 Oeste 0 -- -- 87
2019-05-26 06:00:00 9.7 16 Oeste 31 Oeste 0 -- -- 84
2019-05-26 05:00:00 10 14 Oeste 34 Noroeste 0 -- -- 84
2019-05-26 04:00:00 10.3 17 Oeste 35 Oeste 0 -- -- 84
2019-05-26 03:00:00 10.6 19 Oeste 36 Noroeste 0 -- -- 83
2019-05-26 02:00:00 11.1 22 Oeste 35 Noroeste 0 -- -- 81
2019-05-26 01:00:00 11.4 18 Oeste 35 Noroeste 0 -- -- 79
2019-05-26 00:00:00 11.8 22 Oeste 36 Oeste 0 -- -- 80